Time;durP1;ratioP1;P1;durP2;ratioP2;P2;SDS_P1;SDS_P2;PMS_P1;PMS_P2;Temp;Humidity;BMP_temperature;BMP_pressure;BME280_temperature;BME280_humidity;BME280_pressure;Samples;Min_cycle;Max_cycle;Signal;HPM_P1;HPM_P2
2024/03/06 00:01:04;;;;;;;11.43;6.77;;;9.20;99.90;;;;;;7285740;19;20185;-78
2024/03/06 00:03:30;;;;;;;11.63;6.50;;;9.20;99.90;;;;;;7286600;19;20260;-80
2024/03/06 00:05:56;;;;;;;11.93;7.10;;;9.30;99.90;;;;;;7284753;19;20201;-79
2024/03/06 00:08:21;;;;;;;13.37;7.23;;;9.40;99.90;;;;;;7285669;19;20262;-78
2024/03/06 00:10:47;;;;;;;11.60;6.67;;;9.40;99.90;;;;;;7284307;19;20187;-79
2024/03/06 00:13:13;;;;;;;11.27;6.70;;;9.50;99.90;;;;;;7284338;19;20215;-78
2024/03/06 00:15:39;;;;;;;11.70;6.53;;;9.50;99.90;;;;;;7307809;19;20295;-78
2024/03/06 00:18:05;;;;;;;11.13;6.37;;;9.50;99.90;;;;;;7285580;19;20844;-78
2024/03/06 00:20:31;;;;;;;12.43;6.30;;;9.50;99.90;;;;;;7286607;19;20674;-78
2024/03/06 00:22:59;;;;;;;13.30;6.43;;;9.30;99.90;;;;;;7285292;19;20254;-78
2024/03/06 00:25:25;;;;;;;12.43;6.87;;;9.30;99.90;;;;;;7284565;19;20191;-78
2024/03/06 00:27:50;;;;;;;12.67;7.23;;;9.20;99.90;;;;;;7283690;19;20291;-78
2024/03/06 00:30:16;;;;;;;13.97;7.20;;;9.10;99.90;;;;;;7285264;19;20189;-78
2024/03/06 00:32:42;;;;;;;13.87;7.00;;;8.90;99.90;;;;;;7286641;19;20212;-77
2024/03/06 00:35:12;;;;;;;12.73;7.00;;;8.60;99.90;;;;;;7298312;19;20571;-78
2024/03/06 00:37:37;;;;;;;11.57;6.80;;;8.50;99.90;;;;;;7301362;19;20198;-78
2024/03/06 00:40:04;;;;;;;12.10;7.30;;;8.50;99.90;;;;;;7282479;19;20713;-79
2024/03/06 00:42:29;;;;;;;14.13;7.57;;;8.30;99.90;;;;;;7283698;19;20275;-79
2024/03/06 00:44:55;;;;;;;12.33;7.50;;;8.20;99.90;;;;;;7284491;19;20204;-79
2024/03/06 00:47:21;;;;;;;12.73;7.07;;;8.00;99.90;;;;;;7284283;19;20672;-78
2024/03/06 00:49:47;;;;;;;12.00;7.27;;;7.90;99.90;;;;;;7282777;19;20195;-78
2024/03/06 00:52:12;;;;;;;12.13;6.97;;;7.80;99.90;;;;;;7284637;19;20226;-78
2024/03/06 00:54:38;;;;;;;13.37;7.33;;;7.70;99.90;;;;;;7305459;19;20199;-78
2024/03/06 00:57:04;;;;;;;13.30;7.13;;;7.60;99.90;;;;;;7283358;19;20277;-78
2024/03/06 00:59:30;;;;;;;12.93;7.47;;;7.50;99.90;;;;;;7282668;19;20206;-78
2024/03/06 01:01:56;;;;;;;11.13;7.07;;;7.40;99.90;;;;;;7282947;19;20198;-78
2024/03/06 01:04:22;;;;;;;11.90;7.10;;;7.50;99.90;;;;;;7283014;19;20197;-78
2024/03/06 01:06:48;;;;;;;12.50;7.40;;;7.40;99.90;;;;;;7282122;19;20198;-78
2024/03/06 01:09:14;;;;;;;12.43;7.20;;;7.40;99.90;;;;;;7284456;19;20210;-79
2024/03/06 01:11:40;;;;;;;12.60;7.90;;;7.30;99.90;;;;;;7303526;19;20181;-78
2024/03/06 01:14:05;;;;;;;12.63;7.83;;;7.30;99.90;;;;;;7283183;19;20187;-78
2024/03/06 01:16:31;;;;;;;14.83;7.37;;;7.30;99.90;;;;;;7282434;19;20229;-78
2024/03/06 01:18:57;;;;;;;13.73;8.13;;;7.10;99.90;;;;;;7282788;19;20248;-78
2024/03/06 01:21:22;;;;;;;13.57;7.87;;;7.00;99.90;;;;;;7280642;19;20583;-79
2024/03/06 01:23:48;;;;;;;16.60;7.97;;;7.00;99.90;;;;;;7278923;19;20660;-78
2024/03/06 01:26:14;;;;;;;13.37;7.97;;;6.90;99.90;;;;;;7277709;19;20197;-78
2024/03/06 01:28:39;;;;;;;12.30;7.30;;;6.80;99.90;;;;;;7300819;19;20199;-79
2024/03/06 01:31:06;;;;;;;11.80;7.33;;;6.60;99.90;;;;;;7277637;19;20219;-78
2024/03/06 01:33:32;;;;;;;13.93;7.90;;;6.70;99.90;;;;;;7278188;19;20529;-78
2024/03/06 01:35:58;;;;;;;14.17;8.27;;;6.60;99.90;;;;;;7279510;19;20200;-78
2024/03/06 01:38:23;;;;;;;13.97;7.83;;;6.60;99.90;;;;;;7280454;19;20188;-78
2024/03/06 01:40:49;;;;;;;11.93;7.30;;;6.60;99.90;;;;;;7279557;19;20811;-78
2024/03/06 01:43:23;;;;;;;13.87;7.93;;;6.50;99.90;;;;;;7280609;19;20191;-78
2024/03/06 01:45:49;;;;;;;12.03;7.73;;;6.50;99.90;;;;;;7281686;19;20193;-78
2024/03/06 01:48:20;;;;;;;14.60;7.43;;;6.40;99.90;;;;;;7282366;19;20189;-79
2024/03/06 01:50:46;;;;;;;14.43;8.20;;;6.40;99.90;;;;;;7288181;19;20188;-78
2024/03/06 01:53:14;;;;;;;13.57;8.30;;;6.30;99.90;;;;;;7302197;19;20197;-77
2024/03/06 01:55:40;;;;;;;13.40;8.10;;;6.20;99.90;;;;;;7309293;19;20205;-78
2024/03/06 01:58:06;;;;;;;14.87;8.10;;;6.20;99.90;;;;;;7287324;19;20244;-79
2024/03/06 02:00:33;;;;;;;14.20;8.53;;;6.20;99.90;;;;;;7288642;19;20203;-78
2024/03/06 02:03:00;;;;;;;14.93;8.03;;;6.20;99.90;;;;;;7287850;19;20194;-79
2024/03/06 02:05:28;;;;;;;15.50;8.90;;;6.20;99.90;;;;;;7287505;19;20191;-78
2024/03/06 02:07:54;;;;;;;15.23;8.50;;;6.10;99.90;;;;;;7288014;19;20191;-78
2024/03/06 02:10:19;;;;;;;15.33;8.30;;;6.10;99.90;;;;;;7286019;19;20188;-78
2024/03/06 02:12:45;;;;;;;14.60;8.47;;;6.10;99.90;;;;;;7286919;19;20735;-78
2024/03/06 02:15:12;;;;;;;16.37;8.00;;;6.00;99.90;;;;;;7309117;19;20202;-77
2024/03/06 02:17:38;;;;;;;15.47;8.43;;;6.00;99.90;;;;;;7285188;19;20288;-78
2024/03/06 02:20:05;;;;;;;13.73;8.67;;;5.90;99.90;;;;;;7287413;19;20187;-78
2024/03/06 02:22:32;;;;;;;15.97;8.87;;;6.00;99.90;;;;;;7287061;19;20203;-79
2024/03/06 02:24:58;;;;;;;16.40;10.00;;;6.10;99.90;;;;;;7286333;19;20665;-78
2024/03/06 02:27:24;;;;;;;15.97;9.40;;;6.10;99.90;;;;;;7286313;19;20189;-78
2024/03/06 02:29:50;;;;;;;16.90;9.87;;;6.10;99.90;;;;;;7285559;19;20203;-80
2024/03/06 02:32:18;;;;;;;17.53;9.63;;;6.20;99.90;;;;;;7283799;19;20192;-78
2024/03/06 02:34:43;;;;;;;15.97;9.97;;;6.20;99.90;;;;;;7286127;19;20224;-78
2024/03/06 02:37:09;;;;;;;17.00;10.17;;;6.30;99.90;;;;;;7308443;19;20193;-79
2024/03/06 02:39:35;;;;;;;16.47;10.33;;;6.30;99.90;;;;;;7287131;19;20189;-78
2024/03/06 02:42:01;;;;;;;16.47;9.90;;;6.30;99.90;;;;;;7287031;19;20274;-78
2024/03/06 02:44:26;;;;;;;18.73;10.10;;;6.30;99.90;;;;;;7284707;19;20193;-78
2024/03/06 02:46:52;;;;;;;15.50;9.40;;;6.20;99.90;;;;;;7285542;19;20201;-78
2024/03/06 02:49:18;;;;;;;17.70;10.00;;;6.10;99.90;;;;;;7286018;19;20183;-78
2024/03/06 02:51:45;;;;;;;17.27;10.33;;;6.10;99.90;;;;;;7282306;19;20188;-78
2024/03/06 02:54:10;;;;;;;17.03;10.17;;;6.10;99.90;;;;;;7310686;19;20716;-78
2024/03/06 02:56:36;;;;;;;17.20;10.57;;;6.10;99.90;;;;;;7286915;19;20183;-79
2024/03/06 02:59:03;;;;;;;17.07;9.80;;;6.10;99.90;;;;;;7287584;19;20192;-78
2024/03/06 03:01:29;;;;;;;17.20;10.70;;;6.10;99.90;;;;;;7286097;19;20193;-79
2024/03/06 03:03:56;;;;;;;17.77;10.47;;;6.00;99.90;;;;;;7286743;19;20216;-77
2024/03/06 03:06:23;;;;;;;15.80;10.30;;;5.90;99.90;;;;;;7285755;19;20194;-78
2024/03/06 03:08:49;;;;;;;15.20;9.80;;;5.90;99.90;;;;;;7287692;19;20193;-77
2024/03/06 03:11:15;;;;;;;19.03;10.43;;;5.90;99.90;;;;;;7284907;19;20200;-78
2024/03/06 03:13:41;;;;;;;17.13;10.37;;;5.90;99.90;;;;;;7307670;19;20199;-76
2024/03/06 03:16:07;;;;;;;16.40;10.17;;;5.90;99.90;;;;;;7298385;19;20525;-77
2024/03/06 03:18:33;;;;;;;16.50;10.30;;;5.90;99.90;;;;;;7286288;19;20201;-77
2024/03/06 03:20:58;;;;;;;17.17;10.80;;;6.00;99.90;;;;;;7286867;19;20192;-77
2024/03/06 03:23:24;;;;;;;17.13;10.73;;;6.00;99.90;;;;;;7284441;19;20879;-77
2024/03/06 03:25:50;;;;;;;18.67;10.87;;;6.00;99.90;;;;;;7285940;19;20272;-79
2024/03/06 03:28:16;;;;;;;19.33;11.40;;;5.90;99.90;;;;;;7284717;19;20225;-79
2024/03/06 03:30:44;;;;;;;17.63;10.93;;;5.90;99.90;;;;;;7302169;19;20196;-76
2024/03/06 03:33:10;;;;;;;17.17;11.13;;;5.90;99.90;;;;;;7308636;19;20264;-77
2024/03/06 03:35:35;;;;;;;17.63;10.77;;;5.80;99.90;;;;;;7286490;19;20646;-77
2024/03/06 03:38:01;;;;;;;18.87;11.47;;;5.80;99.90;;;;;;7284990;19;20271;-78
2024/03/06 03:40:27;;;;;;;18.03;11.07;;;5.80;99.90;;;;;;7286012;19;20651;-77
2024/03/06 03:42:53;;;;;;;19.00;11.47;;;5.70;99.90;;;;;;7285288;19;20185;-77
2024/03/06 03:45:20;;;;;;;20.03;11.10;;;5.70;99.90;;;;;;7284327;19;20182;-78
2024/03/06 03:47:45;;;;;;;19.27;11.03;;;5.80;99.90;;;;;;7284417;19;20197;-78
2024/03/06 03:50:12;;;;;;;17.60;11.93;;;5.70;99.90;;;;;;7306322;19;20691;-75
2024/03/06 03:52:41;;;;;;;17.30;10.97;;;5.60;99.90;;;;;;7299324;19;20214;-78
2024/03/06 03:55:07;;;;;;;18.13;11.47;;;5.50;99.90;;;;;;7284792;19;20177;-77
2024/03/06 03:57:33;;;;;;;19.37;11.83;;;5.50;99.90;;;;;;7283206;19;20270;-77
2024/03/06 03:59:59;;;;;;;19.23;11.60;;;5.40;99.90;;;;;;7286607;19;20286;-77
2024/03/06 04:02:25;;;;;;;18.57;11.13;;;5.50;99.90;;;;;;7284696;19;20211;-78
2024/03/06 04:04:50;;;;;;;17.30;11.70;;;5.50;99.90;;;;;;7283948;19;20545;-78
2024/03/06 04:07:18;;;;;;;19.03;11.77;;;5.50;99.90;;;;;;7284774;19;20181;-78
2024/03/06 04:09:44;;;;;;;17.93;11.43;;;5.50;99.90;;;;;;7283677;19;20276;-77
2024/03/06 04:12:10;;;;;;;18.57;11.27;;;5.50;99.90;;;;;;7304577;19;20272;-78
2024/03/06 04:14:36;;;;;;;19.03;11.57;;;5.50;99.90;;;;;;7284746;19;20195;-77
2024/03/06 04:17:03;;;;;;;19.00;11.00;;;5.50;99.90;;;;;;7283542;19;20198;-78
2024/03/06 04:19:30;;;;;;;19.60;12.43;;;5.40;99.90;;;;;;7285529;19;20199;-78
2024/03/06 04:21:56;;;;;;;17.70;11.57;;;5.30;99.90;;;;;;7284612;19;20180;-79
2024/03/06 04:24:21;;;;;;;16.87;10.80;;;5.40;99.90;;;;;;7284994;19;20190;-78
2024/03/06 04:26:47;;;;;;;19.90;12.37;;;5.40;99.90;;;;;;7285712;19;20194;-78
2024/03/06 04:29:13;;;;;;;22.87;11.63;;;5.20;99.90;;;;;;7288289;19;20195;-77
2024/03/06 04:31:39;;;;;;;20.80;11.43;;;5.10;99.90;;;;;;7306093;19;20209;-79
2024/03/06 04:34:05;;;;;;;18.33;11.90;;;5.20;99.90;;;;;;7284811;19;20191;-78
2024/03/06 04:36:30;;;;;;;19.57;12.33;;;5.20;99.90;;;;;;7283388;19;20181;-78
2024/03/06 04:38:56;;;;;;;20.10;11.53;;;5.10;99.90;;;;;;7285743;19;20192;-78
2024/03/06 04:41:23;;;;;;;21.33;12.93;;;5.10;99.90;;;;;;7284929;19;20185;-79
2024/03/06 04:43:50;;;;;;;21.77;12.40;;;5.10;99.90;;;;;;7284216;19;20186;-78
2024/03/06 04:46:16;;;;;;;19.53;12.80;;;5.00;99.90;;;;;;7283613;19;20995;-78
2024/03/06 04:48:42;;;;;;;21.60;13.43;;;5.00;99.90;;;;;;7300345;19;20205;-78
2024/03/06 04:51:09;;;;;;;18.93;12.47;;;5.00;99.90;;;;;;7295048;19;20217;-78
2024/03/06 04:53:35;;;;;;;20.73;12.63;;;5.10;99.90;;;;;;7284897;19;20211;-78
2024/03/06 04:56:01;;;;;;;20.40;12.73;;;5.20;99.90;;;;;;7280835;19;20217;-79
2024/03/06 04:58:27;;;;;;;20.97;11.63;;;5.30;99.90;;;;;;7283206;19;20184;-78
2024/03/06 05:00:53;;;;;;;20.30;12.17;;;5.40;99.90;;;;;;7284877;19;21050;-78
2024/03/06 05:03:18;;;;;;;19.00;12.40;;;5.30;99.90;;;;;;7281612;19;20184;-78
2024/03/06 05:05:44;;;;;;;18.33;11.70;;;5.30;99.90;;;;;;7284220;19;20198;-78
2024/03/06 05:08:10;;;;;;;20.97;12.47;;;5.30;99.90;;;;;;7305219;19;20198;-78
2024/03/06 05:10:36;;;;;;;18.17;10.90;;;5.30;99.90;;;;;;7281802;19;20212;-78
2024/03/06 05:13:02;;;;;;;16.87;10.53;;;5.40;99.90;;;;;;7284716;19;20198;-78
2024/03/06 05:15:27;;;;;;;14.60;9.90;;;5.30;99.90;;;;;;7283500;19;20194;-78
2024/03/06 05:17:55;;;;;;;15.73;10.33;;;5.30;99.90;;;;;;7282813;19;20197;-78
2024/03/06 05:20:21;;;;;;;17.20;9.87;;;5.30;99.90;;;;;;7283664;19;20230;-78
2024/03/06 05:22:47;;;;;;;15.97;9.63;;;5.30;99.90;;;;;;7279915;19;21044;-78
2024/03/06 05:25:13;;;;;;;19.37;10.07;;;5.30;99.90;;;;;;7293688;19;20195;-77
2024/03/06 05:27:39;;;;;;;18.40;10.60;;;5.30;99.90;;;;;;7303908;19;20657;-79
2024/03/06 05:30:05;;;;;;;20.47;12.17;;;5.40;99.90;;;;;;7282142;19;20210;-78
2024/03/06 05:32:31;;;;;;;20.00;12.27;;;5.40;99.90;;;;;;7282708;19;20216;-78
2024/03/06 05:34:58;;;;;;;19.37;12.47;;;5.30;99.90;;;;;;7282226;19;20188;-78
2024/03/06 05:37:23;;;;;;;21.07;12.60;;;5.30;99.90;;;;;;7279400;19;20200;-79
2024/03/06 05:39:49;;;;;;;21.63;12.90;;;5.30;99.90;;;;;;7281975;19;20185;-78
2024/03/06 05:42:15;;;;;;;21.07;13.07;;;5.30;99.90;;;;;;7279933;19;20208;-78
2024/03/06 05:44:40;;;;;;;20.47;12.87;;;5.20;99.90;;;;;;7304539;19;20188;-78
2024/03/06 05:47:06;;;;;;;22.70;12.97;;;5.10;99.90;;;;;;7280814;19;20641;-78
2024/03/06 05:49:32;;;;;;;23.27;13.00;;;5.10;99.90;;;;;;7282393;19;20201;-77
2024/03/06 05:51:58;;;;;;;22.03;13.53;;;5.10;99.90;;;;;;7280866;19;20191;-78
2024/03/06 05:54:24;;;;;;;22.30;13.60;;;5.10;99.90;;;;;;7283061;19;20184;-80
2024/03/06 05:56:53;;;;;;;20.97;12.60;;;5.00;99.90;;;;;;7281847;19;20216;-79
2024/03/06 05:59:20;;;;;;;23.50;13.43;;;4.80;99.90;;;;;;7282686;19;20185;-78
2024/03/06 06:01:46;;;;;;;19.83;13.20;;;4.90;99.90;;;;;;7281291;19;20247;-78
2024/03/06 06:04:13;;;;;;;23.50;13.57;;;4.80;99.90;;;;;;7303712;19;20710;-75
2024/03/06 06:06:39;;;;;;;21.90;13.20;;;4.90;99.90;;;;;;7303790;19;20623;-79
2024/03/06 06:09:05;;;;;;;20.87;12.80;;;5.10;99.90;;;;;;7281776;19;20173;-79
2024/03/06 06:11:33;;;;;;;21.27;11.97;;;5.20;99.90;;;;;;7281696;19;20216;-79
2024/03/06 06:13:59;;;;;;;18.70;12.13;;;5.20;99.90;;;;;;7282407;19;20258;-78
2024/03/06 06:16:25;;;;;;;20.70;12.80;;;5.20;99.90;;;;;;7281226;19;20189;-79
2024/03/06 06:18:50;;;;;;;25.57;13.63;;;5.20;99.90;;;;;;7281472;19;20202;-78
2024/03/06 06:21:16;;;;;;;22.17;12.90;;;5.10;99.90;;;;;;7281529;19;20189;-77
2024/03/06 06:23:42;;;;;;;23.17;12.27;;;5.00;99.90;;;;;;7300693;19;20184;-76
2024/03/06 06:26:10;;;;;;;22.53;13.37;;;5.00;99.90;;;;;;7297232;19;20567;-79
2024/03/06 06:28:36;;;;;;;22.63;13.00;;;5.00;99.90;;;;;;7280719;19;20207;-79
2024/03/06 06:31:04;;;;;;;25.57;12.93;;;5.00;99.90;;;;;;7282440;19;20707;-78
2024/03/06 06:33:30;;;;;;;26.10;14.77;;;5.00;99.90;;;;;;7281012;19;20639;-78
2024/03/06 06:35:55;;;;;;;23.77;13.67;;;5.00;99.90;;;;;;7282776;19;20193;-78
2024/03/06 06:38:22;;;;;;;22.53;13.47;;;5.10;99.90;;;;;;7288143;19;20671;-78
2024/03/06 06:40:47;;;;;;;24.53;13.80;;;5.10;99.90;;;;;;7287459;19;20189;-78
2024/03/06 06:43:13;;;;;;;24.20;14.47;;;4.80;99.90;;;;;;7294405;19;20568;-78
2024/03/06 06:45:40;;;;;;;26.43;14.67;;;4.80;99.90;;;;;;7309320;19;20199;-79
2024/03/06 06:48:06;;;;;;;25.43;13.70;;;4.70;99.90;;;;;;7283865;19;20177;-80
2024/03/06 06:50:33;;;;;;;23.73;15.13;;;4.60;99.90;;;;;;7285962;19;20194;-80
2024/03/06 06:53:00;;;;;;;23.73;15.17;;;4.70;99.90;;;;;;7288380;19;20552;-79
2024/03/06 06:55:25;;;;;;;22.73;14.70;;;4.70;99.90;;;;;;7285483;19;20676;-78
2024/03/06 06:57:51;;;;;;;25.13;14.43;;;4.90;99.90;;;;;;7285029;19;20189;-77
2024/03/06 07:00:18;;;;;;;23.80;14.93;;;5.10;99.90;;;;;;7286694;19;20699;-79
2024/03/06 07:02:45;;;;;;;24.10;14.17;;;5.30;99.90;;;;;;7285123;19;20552;-78
2024/03/06 07:05:11;;;;;;;23.87;13.43;;;5.40;99.90;;;;;;7306234;19;20667;-79
2024/03/06 07:07:38;;;;;;;23.23;14.00;;;5.40;99.90;;;;;;7287610;19;20204;-80
2024/03/06 07:10:04;;;;;;;23.60;13.60;;;5.30;99.90;;;;;;7286271;19;20182;-80
2024/03/06 07:12:31;;;;;;;25.63;17.40;;;5.20;99.90;;;;;;7283984;19;20185;-79
2024/03/06 07:14:57;;;;;;;22.40;13.53;;;5.10;99.90;;;;;;7284500;19;20185;-80
2024/03/06 07:17:23;;;;;;;25.20;13.67;;;5.10;99.90;;;;;;7285507;19;20192;-78
2024/03/06 07:19:50;;;;;;;24.57;13.17;;;5.30;99.90;;;;;;7284330;19;20185;-78
2024/03/06 07:22:16;;;;;;;20.47;12.90;;;5.70;99.90;;;;;;7284673;19;20190;-78
2024/03/06 07:24:42;;;;;;;20.40;10.80;;;6.20;99.90;;;;;;7304349;19;20179;-78
2024/03/06 07:27:08;;;;;;;19.83;9.87;;;7.30;99.90;;;;;;7297553;19;20196;-78
2024/03/06 07:29:35;;;;;;;15.23;9.30;;;8.20;99.90;;;;;;7285078;19;20654;-78
2024/03/06 07:32:01;;;;;;;19.83;9.27;;;8.40;99.90;;;;;;7284498;19;20262;-78
2024/03/06 07:34:27;;;;;;;14.43;7.33;;;9.00;99.90;;;;;;7283633;19;20210;-77
2024/03/06 07:36:53;;;;;;;13.20;7.50;;;10.60;99.90;;;;;;7284469;19;20636;-77
2024/03/06 07:39:21;;;;;;;15.37;7.97;;;12.00;99.90;;;;;;7286503;19;20185;-78
2024/03/06 07:41:47;;;;;;;15.67;7.87;;;13.20;99.90;;;;;;7282914;19;20191;-77
2024/03/06 07:44:13;;;;;;;13.27;7.90;;;12.70;99.90;;;;;;7293929;19;20198;-76
2024/03/06 07:46:39;;;;;;;14.13;8.17;;;11.60;99.90;;;;;;7304089;19;20216;-77
2024/03/06 07:49:05;;;;;;;15.53;8.47;;;10.60;99.90;;;;;;7285140;19;20643;-78
2024/03/06 07:51:31;;;;;;;17.37;8.47;;;10.10;99.90;;;;;;7285400;19;20655;-78
2024/03/06 07:53:57;;;;;;;14.73;7.77;;;9.40;99.90;;;;;;7287262;19;20188;-78
2024/03/06 07:56:26;;;;;;;14.97;8.23;;;9.50;99.90;;;;;;7285914;19;20214;-78
2024/03/06 07:58:53;;;;;;;12.97;7.63;;;10.50;99.90;;;;;;7284587;19;20185;-78
2024/03/06 08:01:20;;;;;;;16.10;7.27;;;12.00;99.90;;;;;;7284387;19;20190;-78
2024/03/06 08:03:46;;;;;;;11.70;7.00;;;13.20;99.90;;;;;;7285691;19;20239;-79
2024/03/06 08:06:15;;;;;;;12.10;6.93;;;14.10;99.90;;;;;;7306655;19;20183;-77
2024/03/06 08:08:43;;;;;;;11.53;7.00;;;14.40;99.90;;;;;;7307272;19;20193;-77
2024/03/06 08:11:10;;;;;;;13.40;6.83;;;14.80;99.90;;;;;;7282706;19;20188;-78
2024/03/06 08:13:36;;;;;;;12.93;7.40;;;14.10;99.90;;;;;;7283388;19;20185;-77
2024/03/06 08:16:03;;;;;;;13.90;7.67;;;13.00;99.90;;;;;;7284923;19;20304;-77
2024/03/06 08:18:30;;;;;;;13.37;7.43;;;12.50;99.90;;;;;;7285801;19;20188;-77
2024/03/06 08:20:56;;;;;;;16.37;8.37;;;12.00;99.90;;;;;;7285201;19;20259;-77
2024/03/06 08:23:23;;;;;;;14.00;7.87;;;11.60;99.90;;;;;;7284997;19;20638;-77
2024/03/06 08:25:49;;;;;;;17.10;8.53;;;11.40;99.90;;;;;;7283761;19;20185;-77
2024/03/06 08:28:15;;;;;;;12.77;8.47;;;11.00;99.90;;;;;;7283538;19;20211;-77
2024/03/06 08:30:41;;;;;;;15.87;8.30;;;10.90;99.90;;;;;;7306211;19;20181;-77
2024/03/06 08:33:07;;;;;;;14.30;6.57;;;10.80;99.90;;;;;;7283377;19;20217;-77
2024/03/06 08:35:33;;;;;;;12.87;6.10;;;10.70;99.90;;;;;;7283189;19;20202;-77
2024/03/06 08:38:00;;;;;;;12.70;6.37;;;10.60;99.90;;;;;;7281138;19;20192;-78
2024/03/06 08:40:27;;;;;;;11.30;5.83;;;10.50;99.90;;;;;;7281339;19;20285;-76
2024/03/06 08:42:54;;;;;;;14.00;6.30;;;10.50;99.90;;;;;;7280350;19;20212;-75
2024/03/06 08:45:20;;;;;;;10.37;5.73;;;10.50;99.90;;;;;;7280250;19;20917;-76
2024/03/06 08:47:47;;;;;;;12.70;6.43;;;10.50;99.90;;;;;;7279592;19;20687;-75
2024/03/06 08:50:13;;;;;;;12.80;6.93;;;10.40;99.90;;;;;;7296240;19;20240;-75
2024/03/06 08:52:40;;;;;;;13.50;6.60;;;10.50;99.90;;;;;;7300356;19;20224;-76
2024/03/06 08:55:07;;;;;;;15.30;7.33;;;10.50;99.90;;;;;;7278109;19;20185;-75
2024/03/06 08:57:36;;;;;;;12.83;6.40;;;10.60;99.90;;;;;;7277064;19;20249;-76
2024/03/06 09:00:03;;;;;;;11.27;6.30;;;10.60;99.90;;;;;;7277148;19;20187;-75
2024/03/06 09:02:29;;;;;;;12.47;6.30;;;10.70;99.90;;;;;;7280120;19;20196;-76
2024/03/06 09:04:55;;;;;;;13.13;6.50;;;10.70;99.90;;;;;;7280200;19;20204;-76
2024/03/06 09:07:23;;;;;;;12.63;6.63;;;10.70;99.90;;;;;;7279195;19;20614;-76
2024/03/06 09:09:51;;;;;;;11.83;6.63;;;10.80;99.90;;;;;;7278616;19;20196;-75
2024/03/06 09:12:17;;;;;;;12.67;6.27;;;10.90;99.90;;;;;;7278730;19;20557;-76
2024/03/06 09:14:47;;;;;;;12.83;5.60;;;10.80;99.90;;;;;;7292798;19;20196;-76
2024/03/06 09:17:14;;;;;;;8.73;4.80;;;10.80;99.90;;;;;;7296574;19;20184;-76
2024/03/06 09:19:40;;;;;;;8.50;4.37;;;10.90;99.90;;;;;;7302568;19;20288;-75
2024/03/06 09:22:07;;;;;;;10.47;4.60;;;11.00;99.90;;;;;;7278058;19;20184;-76
2024/03/06 09:24:35;;;;;;;11.93;5.47;;;11.10;99.90;;;;;;7278299;19;20576;-76
2024/03/06 09:27:01;;;;;;;12.60;6.20;;;11.20;99.90;;;;;;7279503;19;20192;-75
2024/03/06 09:29:27;;;;;;;14.30;6.57;;;11.30;99.90;;;;;;7278371;19;20204;-75
2024/03/06 09:31:52;;;;;;;12.83;6.20;;;11.30;99.90;;;;;;7279014;19;20185;-76
2024/03/06 09:34:18;;;;;;;10.73;5.77;;;11.40;99.90;;;;;;7278245;19;20858;-77
2024/03/06 09:36:48;;;;;;;12.67;6.50;;;11.40;99.90;;;;;;7286530;19;20186;-75
2024/03/06 09:39:20;;;;;;;13.90;6.80;;;11.40;99.90;;;;;;7288175;19;20204;-75
2024/03/06 09:41:50;;;;;;;12.33;5.90;;;11.50;99.90;;;;;;7277875;19;20197;-76
2024/03/06 09:44:17;;;;;;;13.73;6.47;;;11.50;99.90;;;;;;7279940;19;20635;-76
2024/03/06 09:46:44;;;;;;;13.93;7.03;;;11.50;99.90;;;;;;7300568;19;20201;-76
2024/03/06 09:49:12;;;;;;;13.30;7.37;;;11.60;99.90;;;;;;7280432;19;20229;-76
2024/03/06 09:51:41;;;;;;;16.30;7.10;;;11.60;99.90;;;;;;7277908;19;20189;-76
2024/03/06 09:54:08;;;;;;;13.20;7.27;;;11.50;99.90;;;;;;7279243;19;20664;-77
2024/03/06 09:56:33;;;;;;;15.00;7.17;;;11.40;99.90;;;;;;7279017;19;20634;-76
2024/03/06 09:59:00;;;;;;;11.97;6.77;;;11.30;99.90;;;;;;7279514;19;20192;-75
2024/03/06 10:01:27;;;;;;;13.57;6.47;;;11.40;99.90;;;;;;7280129;19;20185;-75
2024/03/06 10:03:53;;;;;;;15.03;7.10;;;11.40;99.90;;;;;;7278370;19;20262;-76
2024/03/06 10:06:20;;;;;;;14.00;6.57;;;11.50;99.90;;;;;;7278933;19;20272;-76
2024/03/06 10:08:46;;;;;;;13.10;5.90;;;11.70;99.90;;;;;;7278781;19;20212;-77
2024/03/06 10:11:12;;;;;;;13.00;4.83;;;12.60;99.90;;;;;;7305333;19;20216;-76
2024/03/06 10:13:38;;;;;;;10.80;3.87;;;14.90;99.90;;;;;;7286100;19;20303;-75
2024/03/06 10:16:11;;;;;;;10.27;4.20;;;17.20;99.90;;;;;;7284895;19;20289;-76
2024/03/06 10:18:40;;;;;;;7.53;3.97;;;18.60;99.90;;;;;;7284209;19;20200;-76
2024/03/06 10:21:06;;;;;;;9.00;5.00;;;20.50;99.90;;;;;;7286051;19;20191;-76
2024/03/06 10:23:32;;;;;;;9.30;4.30;;;22.30;99.90;;;;;;7285976;19;20185;-76
2024/03/06 10:25:58;;;;;;;8.97;4.40;;;23.40;99.90;;;;;;7284566;19;20197;-77
2024/03/06 10:28:24;;;;;;;7.27;3.30;;;24.20;99.90;;;;;;7285502;19;20189;-76
2024/03/06 10:30:51;;;;;;;7.90;3.47;;;24.40;99.90;;;;;;7285659;19;20196;-76
2024/03/06 10:33:18;;;;;;;8.47;4.10;;;23.70;98.70;;;;;;7282739;19;20185;-76
2024/03/06 10:35:46;;;;;;;9.00;4.10;;;23.60;99.90;;;;;;7290284;19;20260;-76
2024/03/06 10:38:12;;;;;;;11.43;4.43;;;24.80;99.30;;;;;;7305223;19;20613;-76
2024/03/06 10:40:43;;;;;;;8.85;4.10;;;25.40;94.30;;;;;;7284811;19;20197;-77
2024/03/06 10:43:10;;;;;;;9.60;3.78;;;26.20;94.20;;;;;;7285197;19;20252;-77
2024/03/06 10:45:49;;;;;;;9.77;4.60;;;26.90;91.80;;;;;;7284013;19;20244;-76
2024/03/06 10:48:16;;;;;;;10.65;4.88;;;26.90;89.30;;;;;;7263180;19;20284;-76
2024/03/06 10:50:46;;;;;;;8.45;4.72;;;26.60;85.10;;;;;;7305221;19;20196;-76
2024/03/06 10:53:13;;;;;;;9.07;4.68;;;25.10;87.60;;;;;;7283776;19;20244;-76
2024/03/06 10:55:40;;;;;;;13.40;5.18;;;24.70;90.20;;;;;;7284617;19;20535;-76
2024/03/06 10:58:10;;;;;;;7.97;4.90;;;23.80;90.90;;;;;;7284212;19;20189;-77
2024/03/06 11:00:47;;;;;;;10.73;4.83;;;23.50;91.20;;;;;;7280773;19;20221;-78
2024/03/06 11:03:14;;;;;;;11.40;5.60;;;22.60;92.00;;;;;;7282171;19;20774;-77
2024/03/06 11:05:41;;;;;;;10.27;5.20;;;23.20;92.00;;;;;;7307769;19;20193;-80
2024/03/06 11:08:11;;;;;;;10.13;5.20;;;24.20;90.90;;;;;;7287362;19;21159;-79
2024/03/06 11:10:41;;;;;;;10.57;5.17;;;24.40;90.80;;;;;;7287047;19;20280;-80
2024/03/06 11:13:19;;;;;;;11.20;4.47;;;25.00;90.60;;;;;;7286580;19;20185;-80
2024/03/06 11:15:45;;;;;;;8.02;4.35;;;26.00;86.60;;;;;;7265519;19;20260;-79
2024/03/06 11:18:30;;;;;;;10.15;4.82;;;26.20;82.50;;;;;;7309690;19;20192;-79
2024/03/06 11:21:01;;;;;;;12.77;5.03;;;24.70;84.70;;;;;;7182658;19;2004419;-78
2024/03/06 11:23:27;;;;;;;10.53;4.33;;;23.70;87.60;;;;;;7285638;19;20821;-79
2024/03/06 11:25:55;;;;;;;10.07;4.80;;;23.00;88.80;;;;;;7284701;19;20183;-78
2024/03/06 11:28:24;;;;;;;9.67;5.13;;;22.20;90.50;;;;;;7283770;19;20301;-78
2024/03/06 11:31:03;;;;;;;9.40;4.37;;;22.10;91.20;;;;;;7286388;19;20676;-78
2024/03/06 11:33:37;;;;;;;10.20;4.40;;;22.20;90.10;;;;;;7285408;19;20244;-78
2024/03/06 11:36:17;;;;;;;11.17;4.73;;;22.40;92.00;;;;;;7284279;19;20193;-78
2024/03/06 11:38:47;;;;;;;11.90;5.60;;;23.50;88.30;;;;;;7284219;19;20199;-76
2024/03/06 11:41:13;;;;;;;13.13;5.23;;;23.90;89.00;;;;;;7304415;19;20627;-76
2024/03/06 11:43:43;;;;;;;11.50;4.40;;;23.40;85.80;;;;;;7297509;19;20191;-81
2024/03/06 11:46:10;;;;;;;10.27;4.83;;;21.80;87.40;;;;;;7286536;19;20184;-81
2024/03/06 11:48:36;;;;;;;10.60;4.83;;;20.80;90.30;;;;;;7287707;19;20195;-81
2024/03/06 11:51:03;;;;;;;15.53;5.53;;;20.80;91.10;;;;;;7285888;19;20201;-80
2024/03/06 11:53:36;;;;;;;11.47;5.47;;;20.70;92.50;;;;;;7285958;19;20657;-78
2024/03/06 11:56:07;;;;;;;16.17;7.50;;;21.50;91.80;;;;;;7284777;19;20638;-80
2024/03/06 11:58:33;;;;;;;13.80;6.73;;;21.50;91.40;;;;;;7284491;19;20192;-78
2024/03/06 12:00:59;;;;;;;14.83;6.40;;;20.80;90.10;;;;;;7284936;19;20187;-80
2024/03/06 12:03:25;;;;;;;14.83;7.30;;;19.80;91.30;;;;;;7284650;19;20227;-78
2024/03/06 12:05:52;;;;;;;17.13;7.47;;;19.50;92.60;;;;;;7286946;19;20577;-78
2024/03/06 12:08:19;;;;;;;15.93;7.30;;;19.10;95.00;;;;;;7285335;19;20191;-77
2024/03/06 12:10:47;;;;;;;15.27;7.13;;;18.80;94.60;;;;;;7289814;19;20183;-77
2024/03/06 12:13:13;;;;;;;16.53;7.83;;;18.40;95.20;;;;;;7304813;19;20189;-77
2024/03/06 12:15:43;;;;;;;19.80;7.47;;;18.10;95.60;;;;;;7284876;19;20209;-77
2024/03/06 12:18:09;;;;;;;16.40;5.83;;;17.90;97.30;;;;;;7283447;19;20181;-77
2024/03/06 12:20:35;;;;;;;16.63;6.93;;;17.50;98.90;;;;;;7283634;19;20653;-78
2024/03/06 12:23:01;;;;;;;9.73;5.30;;;16.90;99.90;;;;;;7282488;19;20209;-78
2024/03/06 12:25:27;;;;;;;13.23;5.93;;;16.60;99.90;;;;;;7282712;19;20195;-78
2024/03/06 12:28:09;;;;;;;14.13;6.00;;;16.00;99.90;;;;;;7282975;19;20188;-76
2024/03/06 12:30:44;;;;;;;13.00;5.40;;;15.80;99.90;;;;;;7281864;19;20295;-78
2024/03/06 12:33:14;;;;;;;13.27;5.93;;;15.80;99.90;;;;;;7281495;19;20234;-78
2024/03/06 12:35:40;;;;;;;17.93;6.47;;;15.60;99.90;;;;;;7283631;19;20197;-78
2024/03/06 12:38:16;;;;;;;15.17;5.70;;;15.30;99.90;;;;;;7284428;19;21057;-78